createdAt,value
2019-03-20T00:00:24.083Z,61.50
2019-03-20T00:02:51.075Z,61.60
2019-03-20T00:05:19.031Z,61.50
2019-03-20T00:07:46.604Z,61.40
2019-03-20T00:10:14.284Z,61.00
2019-03-20T00:12:41.903Z,61.30
2019-03-20T00:15:10.498Z,61.20
2019-03-20T00:17:37.936Z,61.00
2019-03-20T00:20:06.656Z,61.40
2019-03-20T00:22:34.176Z,61.20
2019-03-20T00:25:01.672Z,61.10
2019-03-20T00:27:28.855Z,61.10
2019-03-20T00:29:57.765Z,61.80
2019-03-20T00:32:26.537Z,61.70
2019-03-20T00:35:00.903Z,61.20
2019-03-20T00:37:23.731Z,61.20
2019-03-20T00:39:52.692Z,61.10
2019-03-20T00:42:21.715Z,60.80
2019-03-20T00:44:50.787Z,61.10
2019-03-20T00:47:18.071Z,61.20
2019-03-20T00:49:45.623Z,61.20
2019-03-20T00:52:13.635Z,61.30
2019-03-20T00:54:42.159Z,61.40
2019-03-20T00:57:09.315Z,61.60
2019-03-20T00:59:36.348Z,61.60
2019-03-20T01:02:03.454Z,61.50
2019-03-20T01:04:31.672Z,61.20
2019-03-20T01:07:01.307Z,61.60
2019-03-20T01:09:29.335Z,61.50
2019-03-20T01:11:58.071Z,61.20
2019-03-20T01:14:25.359Z,61.20
2019-03-20T01:16:52.579Z,61.10
2019-03-20T01:19:20.136Z,61.20
2019-03-20T01:21:46.980Z,61.30
2019-03-20T01:24:14.011Z,61.30
2019-03-20T01:26:41.728Z,61.50
2019-03-20T01:29:09.194Z,61.40
2019-03-20T01:31:36.677Z,61.40
2019-03-20T01:34:04.713Z,61.50
2019-03-20T01:36:31.603Z,61.60
2019-03-20T01:39:00.815Z,61.60
2019-03-20T01:41:37.553Z,61.70
2019-03-20T01:43:59.156Z,61.40
2019-03-20T01:46:26.528Z,61.90
2019-03-20T01:48:54.556Z,61.50
2019-03-20T01:51:21.689Z,61.50
2019-03-20T01:53:49.535Z,61.60
2019-03-20T01:56:16.958Z,61.70
2019-03-20T01:58:46.303Z,61.50
2019-03-20T02:01:14.419Z,61.70
2019-03-20T02:03:41.432Z,61.40
2019-03-20T02:06:08.614Z,61.30
2019-03-20T02:08:36.143Z,61.20
2019-03-20T02:11:03.235Z,61.30
2019-03-20T02:13:30.339Z,61.40
2019-03-20T02:15:59.106Z,61.30
2019-03-20T02:18:26.097Z,61.30
2019-03-20T02:20:54.540Z,61.20
2019-03-20T02:23:21.642Z,61.10
2019-03-20T02:25:49.452Z,61.00
2019-03-20T02:28:16.580Z,61.20
2019-03-20T02:30:43.695Z,61.40
2019-03-20T02:33:12.522Z,61.30
2019-03-20T02:35:51.254Z,61.00
2019-03-20T02:38:11.467Z,60.90
2019-03-20T02:40:39.205Z,61.10
2019-03-20T02:43:06.704Z,61.00
2019-03-20T02:45:34.783Z,61.30
2019-03-20T02:48:01.921Z,61.10
2019-03-20T02:50:30.631Z,61.00
2019-03-20T02:52:57.945Z,61.00
2019-03-20T02:55:26.344Z,61.20
2019-03-20T02:57:53.494Z,61.00
2019-03-20T03:00:21.091Z,61.10
2019-03-20T03:02:48.053Z,61.30
2019-03-20T03:05:16.803Z,61.20
2019-03-20T03:07:44.245Z,61.10
2019-03-20T03:10:12.679Z,60.90
2019-03-20T03:12:39.792Z,60.80
2019-03-20T03:15:07.383Z,60.90
2019-03-20T03:17:34.482Z,61.70
2019-03-20T03:20:03.900Z,60.90
2019-03-20T03:22:31.781Z,60.80
2019-03-20T03:24:58.805Z,61.00
2019-03-20T03:27:27.845Z,60.80
2019-03-20T03:29:56.224Z,60.80
2019-03-20T03:32:23.825Z,60.70
2019-03-20T03:34:52.174Z,61.30
2019-03-20T03:37:20.529Z,61.20
2019-03-20T03:39:48.019Z,61.20
2019-03-20T03:42:15.583Z,61.30
2019-03-20T03:44:42.847Z,61.40
2019-03-20T03:47:10.358Z,62.20
2019-03-20T03:49:38.418Z,62.00
2019-03-20T03:52:05.853Z,61.60
2019-03-20T03:54:33.245Z,61.40
2019-03-20T03:57:00.717Z,61.80
2019-03-20T03:59:28.209Z,61.90
2019-03-20T04:01:55.758Z,61.90
2019-03-20T04:04:23.504Z,61.50
2019-03-20T04:06:51.067Z,61.50
2019-03-20T04:09:18.123Z,61.50
2019-03-20T04:11:46.823Z,61.90
2019-03-20T04:14:14.420Z,62.00
2019-03-20T04:16:41.715Z,61.70
2019-03-20T04:19:08.907Z,61.50
2019-03-20T04:21:36.003Z,61.00
2019-03-20T04:24:03.212Z,61.90
2019-03-20T04:26:30.191Z,61.20
2019-03-20T04:28:57.769Z,61.10
2019-03-20T04:31:25.472Z,61.50
2019-03-20T04:33:52.532Z,61.40
2019-03-20T04:36:19.695Z,61.20
2019-03-20T04:38:47.456Z,61.30
2019-03-20T04:41:14.800Z,61.50
2019-03-20T04:43:41.815Z,61.20
2019-03-20T04:46:09.231Z,61.10
2019-03-20T04:48:37.395Z,61.30
2019-03-20T04:51:06.171Z,61.40
2019-03-20T04:53:33.613Z,61.60
2019-03-20T04:56:00.833Z,61.00
2019-03-20T04:58:28.293Z,61.50
2019-03-20T05:00:56.327Z,61.20
2019-03-20T05:03:24.071Z,61.60
2019-03-20T05:05:51.319Z,61.40
2019-03-20T05:08:19.024Z,61.50
2019-03-20T05:10:47.319Z,61.70
2019-03-20T05:13:16.516Z,61.60
2019-03-20T05:15:44.399Z,61.40
2019-03-20T05:18:11.664Z,61.20
2019-03-20T05:20:40.564Z,61.30
2019-03-20T05:23:08.483Z,61.40
2019-03-20T05:25:36.879Z,61.40
2019-03-20T05:28:03.953Z,61.40
2019-03-20T05:30:31.816Z,61.40
2019-03-20T05:32:58.720Z,61.40
2019-03-20T05:35:27.004Z,61.70
2019-03-20T05:37:54.114Z,62.00
2019-03-20T05:40:21.260Z,61.70
2019-03-20T05:42:49.217Z,61.40
2019-03-20T05:45:17.036Z,61.50
2019-03-20T05:47:44.160Z,61.30
2019-03-20T05:50:12.236Z,61.40
2019-03-20T05:52:39.808Z,61.70
2019-03-20T05:55:07.039Z,61.80
2019-03-20T05:57:34.593Z,61.70
2019-03-20T06:00:04.240Z,61.80
2019-03-20T06:02:32.092Z,62.10
2019-03-20T06:05:00.611Z,61.70
2019-03-20T06:07:29.005Z,61.70
2019-03-20T06:09:56.449Z,61.90
2019-03-20T06:12:25.230Z,62.40
2019-03-20T06:14:53.144Z,62.10
2019-03-20T06:17:20.567Z,62.40
2019-03-20T06:19:48.422Z,62.90
2019-03-20T06:22:15.405Z,62.90
2019-03-20T06:24:43.324Z,62.60
2019-03-20T06:27:11.497Z,62.40
2019-03-20T06:29:38.484Z,63.00
2019-03-20T06:32:06.348Z,63.40
2019-03-20T06:34:34.334Z,63.60
2019-03-20T06:37:01.962Z,63.70
2019-03-20T06:39:28.816Z,63.50
2019-03-20T06:41:57.055Z,63.60
2019-03-20T06:44:23.908Z,64.60
2019-03-20T06:46:51.731Z,64.10
2019-03-20T06:49:19.226Z,64.20
2019-03-20T06:51:46.577Z,64.20
2019-03-20T06:54:14.951Z,64.60
2019-03-20T06:56:41.975Z,64.70
2019-03-20T07:00:09.716Z,64.80
2019-03-20T07:02:40.696Z,64.80
2019-03-20T07:05:48.620Z,64.80
2019-03-20T07:08:16.743Z,64.60
2019-03-20T07:11:03.955Z,63.70
2019-03-20T07:13:32.111Z,63.90
2019-03-20T07:15:59.915Z,63.30
2019-03-20T07:18:27.511Z,62.10
2019-03-20T07:20:55.273Z,62.10
2019-03-20T07:23:22.564Z,61.20
2019-03-20T07:25:50.152Z,61.00
2019-03-20T07:28:18.817Z,60.70
2019-03-20T07:30:45.904Z,61.60
2019-03-20T07:33:13.176Z,61.00
2019-03-20T07:35:40.699Z,60.30
2019-03-20T07:38:07.901Z,60.90
2019-03-20T07:40:35.323Z,60.30
2019-03-20T07:43:08.721Z,60.10
2019-03-20T07:45:32.669Z,60.20
2019-03-20T07:47:59.830Z,60.80
2019-03-20T07:50:27.656Z,59.90
2019-03-20T07:52:54.611Z,60.40
2019-03-20T07:55:22.555Z,59.00
2019-03-20T07:57:50.200Z,59.20
2019-03-20T08:00:17.799Z,59.40
2019-03-20T08:02:44.903Z,59.50
2019-03-20T08:05:12.300Z,59.10
2019-03-20T08:07:39.312Z,58.50
2019-03-20T08:10:09.140Z,58.60
2019-03-20T08:12:36.439Z,58.10
2019-03-20T08:15:05.671Z,58.00
2019-03-20T08:17:32.800Z,57.60
2019-03-20T08:20:00.032Z,57.30
2019-03-20T08:22:27.537Z,57.10
2019-03-20T08:24:56.632Z,56.60
2019-03-20T08:27:24.707Z,56.80
2019-03-20T08:29:52.651Z,56.90
2019-03-20T08:32:19.563Z,57.20
2019-03-20T08:34:46.638Z,57.20
2019-03-20T08:37:13.828Z,57.10
2019-03-20T08:39:41.383Z,56.50
2019-03-20T08:42:08.983Z,56.50
2019-03-20T08:44:36.127Z,56.50
2019-03-20T08:47:03.501Z,55.90
2019-03-20T08:49:31.512Z,56.20
2019-03-20T08:51:59.003Z,55.60
2019-03-20T08:54:28.067Z,55.80
2019-03-20T08:56:54.944Z,55.90
2019-03-20T08:59:24.139Z,55.70
2019-03-20T09:01:51.031Z,55.60
2019-03-20T09:04:18.488Z,55.50
2019-03-20T09:06:46.459Z,55.20
2019-03-20T09:09:15.050Z,55.20
2019-03-20T09:11:42.828Z,54.70
2019-03-20T09:14:10.351Z,54.20
2019-03-20T09:16:37.347Z,54.40
2019-03-20T09:19:05.783Z,53.90
2019-03-20T09:21:33.796Z,54.00
2019-03-20T09:24:01.003Z,54.00
2019-03-20T09:26:29.056Z,54.40
2019-03-20T09:28:56.035Z,54.40
2019-03-20T09:31:23.179Z,54.00
2019-03-20T09:33:50.958Z,53.80
2019-03-20T09:36:18.171Z,53.70
2019-03-20T09:38:45.887Z,53.60
2019-03-20T09:41:12.849Z,54.40
2019-03-20T09:43:40.287Z,55.30
2019-03-20T09:46:07.688Z,54.50
2019-03-20T09:48:34.880Z,55.70
2019-03-20T09:51:02.067Z,55.00
2019-03-20T09:53:29.091Z,54.20
2019-03-20T09:55:56.148Z,55.10
2019-03-20T09:58:23.651Z,55.00
2019-03-20T10:00:50.645Z,55.00
2019-03-20T10:03:18.411Z,55.00
2019-03-20T10:05:46.746Z,55.40
2019-03-20T10:08:14.068Z,55.60
2019-03-20T10:10:41.460Z,55.00
2019-03-20T10:13:09.714Z,55.50
2019-03-20T10:15:36.769Z,55.30
2019-03-20T10:18:03.883Z,55.80
2019-03-20T10:20:30.934Z,55.90
2019-03-20T10:22:58.722Z,56.10
2019-03-20T10:25:26.068Z,55.50
2019-03-20T10:27:54.249Z,55.40
2019-03-20T10:30:22.179Z,55.30
2019-03-20T10:32:49.676Z,55.20
2019-03-20T10:35:18.392Z,55.60
2019-03-20T10:37:45.807Z,56.60
2019-03-20T10:40:15.263Z,56.20
2019-03-20T10:42:42.854Z,56.20
2019-03-20T10:45:11.279Z,55.00
2019-03-20T10:47:39.455Z,54.70
2019-03-20T10:50:11.483Z,53.90
2019-03-20T10:52:39.971Z,54.10
2019-03-20T10:55:08.315Z,54.60
2019-03-20T10:57:37.311Z,54.00
2019-03-20T11:00:11.455Z,53.90
2019-03-20T11:02:40.355Z,54.30
2019-03-20T11:05:09.920Z,54.10
2019-03-20T11:07:36.797Z,53.60
2019-03-20T11:10:05.144Z,53.70
2019-03-20T11:12:32.583Z,53.90
2019-03-20T11:14:59.727Z,53.50
2019-03-20T11:17:26.916Z,52.70
2019-03-20T11:19:56.295Z,52.60
2019-03-20T11:22:23.936Z,53.00
2019-03-20T11:24:50.924Z,52.80
2019-03-20T11:27:18.455Z,52.50
2019-03-20T11:29:45.759Z,52.90
2019-03-20T11:32:14.331Z,53.00
2019-03-20T11:34:41.953Z,52.90
2019-03-20T11:37:09.181Z,52.40
2019-03-20T11:39:38.103Z,52.40
2019-03-20T11:42:05.498Z,52.50
2019-03-20T11:44:33.292Z,52.20
2019-03-20T11:47:00.751Z,52.80
2019-03-20T11:49:28.031Z,52.30
2019-03-20T11:51:54.949Z,52.50
2019-03-20T11:54:23.231Z,52.40
2019-03-20T11:56:50.211Z,52.40
2019-03-20T11:59:19.146Z,52.30
2019-03-20T12:01:46.353Z,52.20
2019-03-20T12:04:13.795Z,52.40
2019-03-20T12:06:41.257Z,52.00
2019-03-20T12:09:09.763Z,52.00
2019-03-20T12:11:45.443Z,51.90
2019-03-20T12:14:06.707Z,52.00
2019-03-20T12:16:34.631Z,52.10
2019-03-20T12:19:03.260Z,51.90
2019-03-20T12:21:30.513Z,51.60
2019-03-20T12:23:58.203Z,51.30
2019-03-20T12:26:25.940Z,50.60
2019-03-20T12:28:53.280Z,51.40
2019-03-20T12:31:20.352Z,51.60
2019-03-20T12:33:48.035Z,50.90
2019-03-20T12:36:15.132Z,51.10
2019-03-20T12:38:42.187Z,51.20
2019-03-20T12:41:10.512Z,51.00
2019-03-20T12:43:38.610Z,51.40
2019-03-20T12:46:06.504Z,51.30
2019-03-20T12:48:33.632Z,50.60
2019-03-20T12:51:01.392Z,50.20
2019-03-20T12:53:30.443Z,50.80
2019-03-20T12:55:58.121Z,50.90
2019-03-20T12:58:25.615Z,50.50
2019-03-20T13:00:54.528Z,50.10
2019-03-20T13:03:22.400Z,50.70
2019-03-20T13:05:49.941Z,50.70
2019-03-20T13:08:18.591Z,50.80
2019-03-20T13:10:45.916Z,50.80
2019-03-20T13:13:13.760Z,50.80
2019-03-20T13:15:41.783Z,50.60
2019-03-20T13:18:09.880Z,50.70
2019-03-20T13:20:37.152Z,50.60
2019-03-20T13:23:06.562Z,50.50
2019-03-20T13:25:33.564Z,49.80
2019-03-20T13:28:01.028Z,50.00
2019-03-20T13:30:33.303Z,50.20
2019-03-20T13:33:00.706Z,50.20
2019-03-20T13:35:28.148Z,50.30
2019-03-20T13:37:56.703Z,50.40
2019-03-20T13:40:24.615Z,50.20
2019-03-20T13:42:53.416Z,50.20
2019-03-20T13:45:21.375Z,49.60
2019-03-20T13:47:48.295Z,50.20
2019-03-20T13:50:16.815Z,49.40
2019-03-20T13:52:45.020Z,49.60
2019-03-20T13:55:13.107Z,49.70
2019-03-20T13:57:40.690Z,49.40
2019-03-20T14:00:12.151Z,49.50
2019-03-20T14:02:41.059Z,49.40
2019-03-20T14:05:08.684Z,49.40
2019-03-20T14:07:35.988Z,49.10
2019-03-20T14:10:04.616Z,48.90
2019-03-20T14:12:33.482Z,48.80
2019-03-20T14:15:01.047Z,48.80
2019-03-20T14:17:28.131Z,48.60
2019-03-20T14:19:55.700Z,47.90
2019-03-20T14:22:23.612Z,48.20
2019-03-20T14:24:51.576Z,48.60
2019-03-20T14:27:19.171Z,49.60
2019-03-20T14:29:46.950Z,49.00
2019-03-20T14:32:14.660Z,49.00
2019-03-20T14:34:42.451Z,48.50
2019-03-20T14:37:09.732Z,48.40
2019-03-20T14:39:38.213Z,48.30
2019-03-20T14:42:05.288Z,48.10
2019-03-20T14:44:32.278Z,48.00
2019-03-20T14:47:00.172Z,48.30
2019-03-20T14:49:27.763Z,48.30
2019-03-20T14:51:54.755Z,47.90
2019-03-20T14:54:22.679Z,47.60
2019-03-20T14:56:50.458Z,47.40
2019-03-20T14:59:17.513Z,48.00
2019-03-20T15:01:45.151Z,47.80
2019-03-20T15:04:12.014Z,48.20
2019-03-20T15:06:40.024Z,48.10
2019-03-20T15:09:07.689Z,47.80
2019-03-20T15:11:35.396Z,48.30
2019-03-20T15:14:04.415Z,47.60
2019-03-20T15:16:31.936Z,47.70
2019-03-20T15:18:59.227Z,47.50
2019-03-20T15:21:26.975Z,47.40
2019-03-20T15:23:54.932Z,47.70
2019-03-20T15:26:22.456Z,47.70
2019-03-20T15:28:50.329Z,48.20
2019-03-20T15:31:19.376Z,47.90
2019-03-20T15:33:46.323Z,47.90
2019-03-20T15:36:15.495Z,48.20
2019-03-20T15:38:43.937Z,48.20
2019-03-20T15:41:11.135Z,47.90
2019-03-20T15:43:38.608Z,47.70
2019-03-20T15:46:05.963Z,47.40
2019-03-20T15:48:33.259Z,47.50
2019-03-20T15:51:00.714Z,47.60
2019-03-20T15:53:28.164Z,47.30
2019-03-20T15:55:55.069Z,47.60
2019-03-20T15:58:22.784Z,48.10
2019-03-20T16:00:50.299Z,47.70
2019-03-20T16:03:18.303Z,47.80
2019-03-20T16:05:45.628Z,47.50
2019-03-20T16:08:12.635Z,47.80
2019-03-20T16:10:40.838Z,47.70
2019-03-20T16:13:09.882Z,47.70
2019-03-20T16:15:37.776Z,47.70
2019-03-20T16:18:05.487Z,48.00
2019-03-20T16:20:32.486Z,48.60
2019-03-20T16:22:59.519Z,48.80
2019-03-20T16:25:27.467Z,48.80
2019-03-20T16:27:55.493Z,48.90
2019-03-20T16:30:23.207Z,48.70
2019-03-20T16:32:51.071Z,48.60
2019-03-20T16:35:18.183Z,48.90
2019-03-20T16:37:45.811Z,49.20
2019-03-20T16:40:16.257Z,49.50
2019-03-20T16:42:44.027Z,49.70
2019-03-20T16:45:14.810Z,49.40
2019-03-20T16:47:41.995Z,49.60
2019-03-20T16:50:10.759Z,50.00
2019-03-20T16:52:38.655Z,49.80
2019-03-20T16:55:08.383Z,49.80
2019-03-20T16:57:36.243Z,50.00
2019-03-20T17:00:04.975Z,50.20
2019-03-20T17:02:32.079Z,50.40
2019-03-20T17:05:00.524Z,50.00
2019-03-20T17:07:27.628Z,50.20
2019-03-20T17:09:54.901Z,50.60
2019-03-20T17:12:22.002Z,50.50
2019-03-20T17:14:48.956Z,50.60
2019-03-20T17:17:16.262Z,50.20
2019-03-20T17:19:43.246Z,51.10
2019-03-20T17:22:10.963Z,52.10
2019-03-20T17:24:38.384Z,52.00
2019-03-20T17:27:07.919Z,52.20
2019-03-20T17:29:34.807Z,52.60
2019-03-20T17:32:03.760Z,52.70
2019-03-20T17:34:31.320Z,53.30
2019-03-20T17:36:58.952Z,53.80
2019-03-20T17:39:27.107Z,54.30
2019-03-20T17:41:54.955Z,54.00
2019-03-20T17:44:22.927Z,54.10
2019-03-20T17:46:50.591Z,54.50
2019-03-20T17:49:17.902Z,54.90
2019-03-20T17:51:45.908Z,54.80
2019-03-20T17:54:13.019Z,54.80
2019-03-20T17:56:41.615Z,55.30
2019-03-20T17:59:08.981Z,56.50
2019-03-20T18:01:37.608Z,56.40
2019-03-20T18:04:04.895Z,56.70
2019-03-20T18:06:32.717Z,57.20
2019-03-20T18:09:00.767Z,57.70
2019-03-20T18:11:27.763Z,57.80
2019-03-20T18:13:56.839Z,58.10
2019-03-20T18:16:24.901Z,58.00
2019-03-20T18:18:52.760Z,58.20
2019-03-20T18:21:19.830Z,58.80
2019-03-20T18:23:47.848Z,58.70
2019-03-20T18:26:16.272Z,58.90
2019-03-20T18:28:43.296Z,58.80
2019-03-20T18:31:10.483Z,58.50
2019-03-20T18:33:38.467Z,58.40
2019-03-20T18:36:06.893Z,57.90
2019-03-20T18:38:34.227Z,58.40
2019-03-20T18:41:01.700Z,58.60
2019-03-20T18:43:29.291Z,58.80
2019-03-20T18:45:56.307Z,59.20
2019-03-20T18:48:23.594Z,59.30
2019-03-20T18:50:51.079Z,59.50
2019-03-20T18:53:19.048Z,59.60
2019-03-20T18:55:46.535Z,59.70
2019-03-20T18:58:13.705Z,59.60
2019-03-20T19:00:41.364Z,59.80
2019-03-20T19:03:09.283Z,60.00
2019-03-20T19:05:49.262Z,60.00
2019-03-20T19:08:18.755Z,60.20
2019-03-20T19:10:47.271Z,60.10
2019-03-20T19:13:15.877Z,59.90
2019-03-20T19:15:44.423Z,59.90
2019-03-20T19:18:11.939Z,59.70
2019-03-20T19:20:40.995Z,60.10
2019-03-20T19:23:08.124Z,60.10
2019-03-20T19:25:37.869Z,60.00
2019-03-20T19:28:06.391Z,60.60
2019-03-20T19:30:34.207Z,61.00
2019-03-20T19:33:02.166Z,61.70
2019-03-20T19:35:29.324Z,60.80
2019-03-20T19:37:56.859Z,61.10
2019-03-20T19:40:23.945Z,62.30
2019-03-20T19:42:52.779Z,62.40
2019-03-20T19:45:19.899Z,62.60
2019-03-20T19:47:48.784Z,62.70
2019-03-20T19:50:18.021Z,62.70
2019-03-20T19:52:45.515Z,63.00
2019-03-20T19:55:13.561Z,63.00
2019-03-20T19:57:40.653Z,63.00
2019-03-20T20:00:12.384Z,63.20
2019-03-20T20:02:39.643Z,63.00
2019-03-20T20:05:15.284Z,62.90
2019-03-20T20:07:37.447Z,62.90
2019-03-20T20:10:06.061Z,63.30
2019-03-20T20:12:32.919Z,63.20
2019-03-20T20:15:00.317Z,63.30
2019-03-20T20:17:29.351Z,63.50
2019-03-20T20:19:56.367Z,63.50
2019-03-20T20:22:23.823Z,63.60
2019-03-20T20:24:50.949Z,63.70
2019-03-20T20:27:18.276Z,63.80
2019-03-20T20:29:46.241Z,63.70
2019-03-20T20:32:14.302Z,63.20
2019-03-20T20:34:42.444Z,63.00
2019-03-20T20:37:10.862Z,63.50
2019-03-20T20:39:38.124Z,63.80
2019-03-20T20:42:05.804Z,63.90
2019-03-20T20:44:33.179Z,63.70
2019-03-20T20:47:00.623Z,63.60
2019-03-20T20:49:28.535Z,63.80
2019-03-20T20:51:56.127Z,63.90
2019-03-20T20:54:23.259Z,63.70
2019-03-20T20:56:50.583Z,63.70
2019-03-20T20:59:17.763Z,63.30
2019-03-20T21:01:44.903Z,63.50
2019-03-20T21:04:12.048Z,63.60
2019-03-20T21:06:38.936Z,63.70
2019-03-20T21:09:07.384Z,63.80
2019-03-20T21:11:34.411Z,64.00
2019-03-20T21:14:01.825Z,63.70
2019-03-20T21:16:29.451Z,64.10
2019-03-20T21:19:32.151Z,64.10
2019-03-20T21:22:46.027Z,63.90
2019-03-20T21:25:18.439Z,63.70
2019-03-20T21:28:20.150Z,63.70
2019-03-20T21:31:04.721Z,63.10
2019-03-20T21:34:10.595Z,62.70
2019-03-20T21:37:09.499Z,63.00
2019-03-20T21:39:37.320Z,63.70
2019-03-20T21:43:06.945Z,63.80
2019-03-20T21:46:12.292Z,63.90
2019-03-20T21:48:40.972Z,63.90
2019-03-20T21:51:15.308Z,63.90
2019-03-20T21:54:33.587Z,63.60
2019-03-20T21:57:09.751Z,63.70
2019-03-20T22:00:22.295Z,64.00
2019-03-20T22:02:49.803Z,64.00
2019-03-20T22:06:13.976Z,64.90
2019-03-20T22:08:41.992Z,64.40
2019-03-20T22:11:53.483Z,64.00
2019-03-20T22:14:21.411Z,63.90
2019-03-20T22:17:25.459Z,64.20
2019-03-20T22:20:40.132Z,64.50
2019-03-20T22:23:27.192Z,64.10
2019-03-20T22:26:30.511Z,64.60
2019-03-20T22:29:23.037Z,64.40
2019-03-20T22:32:33.439Z,64.50
2019-03-20T22:35:41.332Z,64.30
2019-03-20T22:38:15.425Z,64.50
2019-03-20T22:41:13.683Z,64.50
2019-03-20T22:43:46.382Z,64.60
2019-03-20T22:47:06.904Z,64.90
2019-03-20T22:50:10.183Z,64.70
2019-03-20T22:53:24.364Z,64.60
2019-03-20T22:56:31.150Z,64.50
2019-03-20T22:58:59.639Z,64.60
2019-03-20T23:01:42.027Z,64.90
2019-03-20T23:04:15.427Z,64.40
2019-03-20T23:06:45.116Z,64.00
2019-03-20T23:09:14.661Z,64.30
2019-03-20T23:11:42.871Z,64.40
2019-03-20T23:14:11.175Z,64.30
2019-03-20T23:16:38.692Z,64.60
2019-03-20T23:19:06.592Z,64.50
2019-03-20T23:21:34.725Z,64.30
2019-03-20T23:24:02.675Z,64.20
2019-03-20T23:26:30.847Z,64.00
2019-03-20T23:28:59.004Z,64.10
2019-03-20T23:31:28.213Z,64.50
2019-03-20T23:33:56.691Z,64.70
2019-03-20T23:36:25.035Z,64.80
2019-03-20T23:38:53.275Z,64.70
2019-03-20T23:41:21.885Z,65.00
2019-03-20T23:43:53.194Z,65.20
2019-03-20T23:46:19.798Z,65.00
2019-03-20T23:48:58.922Z,64.90
2019-03-20T23:51:26.484Z,65.60
2019-03-20T23:53:55.171Z,64.80
2019-03-20T23:56:24.255Z,65.10
2019-03-20T23:58:53.605Z,65.00
